createdAt,value
2018-11-20T00:00:08.637Z,1013.9
2018-11-20T00:01:11.044Z,1013.9
2018-11-20T00:02:13.047Z,1013.8
2018-11-20T00:03:15.072Z,1013.9
2018-11-20T00:04:17.082Z,1013.8
2018-11-20T00:05:19.508Z,1013.8
2018-11-20T00:06:21.870Z,1013.8
2018-11-20T00:07:23.890Z,1013.8
2018-11-20T00:08:25.910Z,1013.8
2018-11-20T00:09:27.918Z,1013.7
2018-11-20T00:10:29.944Z,1013.7
2018-11-20T00:11:31.950Z,1013.7
2018-11-20T00:12:33.966Z,1013.6
2018-11-20T00:13:35.975Z,1013.6
2018-11-20T00:14:38.291Z,1013.7
2018-11-20T00:15:40.300Z,1013.6
2018-11-20T00:16:42.321Z,1013.6
2018-11-20T00:17:44.341Z,1013.5
2018-11-20T00:18:46.344Z,1013.6
2018-11-20T00:19:48.369Z,1013.6
2018-11-20T00:20:50.684Z,1013.6
2018-11-20T00:21:52.692Z,1013.6
2018-11-20T00:22:54.705Z,1013.6
2018-11-20T00:23:56.724Z,1013.6
2018-11-20T00:24:58.733Z,1013.6
2018-11-20T00:26:00.751Z,1013.6
2018-11-20T00:27:02.770Z,1013.6
2018-11-20T00:28:04.773Z,1013.6
2018-11-20T00:29:06.785Z,1013.6
2018-11-20T00:30:09.090Z,1013.6
2018-11-20T00:31:11.099Z,1013.6
2018-11-20T00:32:13.123Z,1013.6
2018-11-20T00:33:15.140Z,1013.5
2018-11-20T00:34:17.152Z,1013.5
2018-11-20T00:35:19.176Z,1013.5
2018-11-20T00:36:21.184Z,1013.4
2018-11-20T00:37:23.199Z,1013.5
2018-11-20T00:38:25.215Z,1013.5
2018-11-20T00:39:27.235Z,1013.5
2018-11-20T00:40:29.537Z,1013.5
2018-11-20T00:41:31.553Z,1013.4
2018-11-20T00:42:33.660Z,1013.4
2018-11-20T00:43:35.583Z,1013.4
2018-11-20T00:44:37.602Z,1013.4
2018-11-20T00:45:39.615Z,1013.4
2018-11-20T00:46:42.026Z,1013.5
2018-11-20T00:47:44.032Z,1013.4
2018-11-20T00:48:46.052Z,1013.4
2018-11-20T00:49:48.074Z,1013.4
2018-11-20T00:50:50.095Z,1013.4
2018-11-20T00:51:52.387Z,1013.4
2018-11-20T00:52:54.418Z,1013.5
2018-11-20T00:53:56.817Z,1013.4
2018-11-20T00:54:58.833Z,1013.4
2018-11-20T00:56:01.153Z,1013.5
2018-11-20T00:57:03.174Z,1013.4
2018-11-20T00:58:05.186Z,1013.4
2018-11-20T00:59:07.202Z,1013.5
2018-11-20T01:00:09.217Z,1013.4
2018-11-20T01:01:11.222Z,1013.4
2018-11-20T01:02:13.237Z,1013.5
2018-11-20T01:03:15.253Z,1013.4
2018-11-20T01:04:17.261Z,1013.4
2018-11-20T01:05:19.288Z,1013.3
2018-11-20T01:06:22.317Z,1013.4
2018-11-20T01:07:24.333Z,1013.4
2018-11-20T01:08:26.354Z,1013.4
2018-11-20T01:09:28.359Z,1013.4
2018-11-20T01:10:30.372Z,1013.4
2018-11-20T01:11:32.384Z,1013.3
2018-11-20T01:12:34.814Z,1013.3
2018-11-20T01:13:36.796Z,1013.2
2018-11-20T01:14:38.810Z,1013.3
2018-11-20T01:15:41.115Z,1013.3
2018-11-20T01:16:43.120Z,1013.3
2018-11-20T01:17:45.148Z,1013.3
2018-11-20T01:18:47.470Z,1013.2
2018-11-20T01:19:49.773Z,1013.3
2018-11-20T01:20:52.165Z,1013.3
2018-11-20T01:21:54.180Z,1013.2
2018-11-20T01:22:56.191Z,1013.3
2018-11-20T01:23:58.532Z,1013.3
2018-11-20T01:25:00.554Z,1013.3
2018-11-20T01:26:02.563Z,1013.2
2018-11-20T01:27:04.576Z,1013.3
2018-11-20T01:28:06.588Z,1013.2
2018-11-20T01:29:08.601Z,1013.2
2018-11-20T01:30:10.618Z,1013.2
2018-11-20T01:31:12.627Z,1013.3
2018-11-20T01:32:14.646Z,1013.2
2018-11-20T01:33:16.953Z,1013.2
2018-11-20T01:34:18.960Z,1013.2
2018-11-20T01:35:20.974Z,1013.1
2018-11-20T01:36:22.993Z,1013.2
2018-11-20T01:37:25.004Z,1013.1
2018-11-20T01:38:27.023Z,1013.1
2018-11-20T01:39:29.044Z,1013.1
2018-11-20T01:40:31.051Z,1013
2018-11-20T01:41:33.212Z,1013
2018-11-20T01:42:35.084Z,1013
2018-11-20T01:43:37.496Z,1013
2018-11-20T01:44:39.512Z,1013
2018-11-20T01:45:41.534Z,1013
2018-11-20T01:46:43.543Z,1013
2018-11-20T01:47:45.554Z,1013.1
2018-11-20T01:48:47.572Z,1013
2018-11-20T01:49:49.578Z,1013
2018-11-20T01:50:51.605Z,1013
2018-11-20T01:51:54.001Z,1012.9
2018-11-20T01:52:56.020Z,1013.1
2018-11-20T01:53:58.029Z,1013
2018-11-20T01:55:00.048Z,1012.9
2018-11-20T01:56:02.347Z,1013
2018-11-20T01:57:05.022Z,1013
2018-11-20T01:58:07.042Z,1013
2018-11-20T01:59:09.047Z,1012.9
2018-11-20T02:00:11.063Z,1013
2018-11-20T02:01:13.084Z,1012.9
2018-11-20T02:02:15.484Z,1012.9
2018-11-20T02:03:17.491Z,1012.8
2018-11-20T02:04:19.889Z,1012.8
2018-11-20T02:05:21.905Z,1012.8
2018-11-20T02:06:23.917Z,1012.9
2018-11-20T02:07:25.921Z,1012.8
2018-11-20T02:08:27.933Z,1012.9
2018-11-20T02:09:29.951Z,1012.8
2018-11-20T02:10:31.961Z,1012.8
2018-11-20T02:11:33.984Z,1012.9
2018-11-20T02:12:36.394Z,1012.8
2018-11-20T02:13:38.793Z,1012.9
2018-11-20T02:14:40.821Z,1012.9
2018-11-20T02:15:42.835Z,1012.8
2018-11-20T02:16:45.416Z,1012.7
2018-11-20T02:17:47.425Z,1012.9
2018-11-20T02:18:49.445Z,1012.8
2018-11-20T02:19:51.455Z,1012.8
2018-11-20T02:20:53.758Z,1012.8
2018-11-20T02:21:55.776Z,1012.8
2018-11-20T02:22:58.056Z,1012.9
2018-11-20T02:24:00.084Z,1012.8
2018-11-20T02:25:02.765Z,1012.8
2018-11-20T02:26:04.785Z,1012.8
2018-11-20T02:27:06.797Z,1012.8
2018-11-20T02:28:08.815Z,1012.8
2018-11-20T02:29:10.823Z,1012.8
2018-11-20T02:30:12.833Z,1012.9
2018-11-20T02:31:15.142Z,1012.8
2018-11-20T02:32:17.147Z,1012.8
2018-11-20T02:33:19.159Z,1012.8
2018-11-20T02:34:21.181Z,1012.8
2018-11-20T02:35:23.195Z,1012.7
2018-11-20T02:36:25.202Z,1012.8
2018-11-20T02:37:27.222Z,1012.8
2018-11-20T02:38:29.232Z,1012.7
2018-11-20T02:39:31.245Z,1012.7
2018-11-20T02:40:33.273Z,1012.7
2018-11-20T02:41:35.285Z,1012.7
2018-11-20T02:42:37.294Z,1012.7
2018-11-20T02:43:39.613Z,1012.6
2018-11-20T02:44:41.931Z,1012.7
2018-11-20T02:45:43.938Z,1012.6
2018-11-20T02:46:45.959Z,1012.6
2018-11-20T02:47:48.351Z,1012.6
2018-11-20T02:48:50.367Z,1012.6
2018-11-20T02:49:52.810Z,1012.6
2018-11-20T02:50:54.968Z,1012.6
2018-11-20T02:51:56.976Z,1012.5
2018-11-20T02:52:58.997Z,1012.5
2018-11-20T02:54:01.010Z,1012.5
2018-11-20T02:55:03.021Z,1012.5
2018-11-20T02:56:05.045Z,1012.5
2018-11-20T02:57:07.049Z,1012.5
2018-11-20T02:58:09.066Z,1012.5
2018-11-20T02:59:11.075Z,1012.4
2018-11-20T03:00:13.097Z,1012.4
2018-11-20T03:01:15.100Z,1012.4
2018-11-20T03:02:17.506Z,1012.4
2018-11-20T03:03:19.527Z,1012.3
2018-11-20T03:04:21.908Z,1012.4
2018-11-20T03:05:23.937Z,1012.4
2018-11-20T03:06:25.949Z,1012.4
2018-11-20T03:07:27.954Z,1012.4
2018-11-20T03:08:30.628Z,1012.3
2018-11-20T03:09:32.649Z,1012.3
2018-11-20T03:10:34.935Z,1012.4
2018-11-20T03:11:36.953Z,1012.4
2018-11-20T03:12:38.967Z,1012.4
2018-11-20T03:13:40.969Z,1012.3
2018-11-20T03:14:42.982Z,1012.3
2018-11-20T03:15:45.000Z,1012.3
2018-11-20T03:16:47.582Z,1012.3
2018-11-20T03:17:49.603Z,1012.3
2018-11-20T03:18:51.923Z,1012.4
2018-11-20T03:19:54.221Z,1012.4
2018-11-20T03:20:56.225Z,1012.4
2018-11-20T03:21:58.242Z,1012.3
2018-11-20T03:23:00.256Z,1012.3
2018-11-20T03:24:02.275Z,1012.3
2018-11-20T03:25:04.570Z,1012.3
2018-11-20T03:26:06.589Z,1012.3
2018-11-20T03:27:08.725Z,1012.3
2018-11-20T03:28:11.378Z,1012.3
2018-11-20T03:29:13.401Z,1012.3
2018-11-20T03:30:15.684Z,1012.4
2018-11-20T03:31:17.695Z,1012.2
2018-11-20T03:32:20.093Z,1012.3
2018-11-20T03:33:22.110Z,1012.3
2018-11-20T03:34:24.117Z,1012.3
2018-11-20T03:35:26.135Z,1012.3
2018-11-20T03:36:28.156Z,1012.3
2018-11-20T03:37:30.442Z,1012.2
2018-11-20T03:38:32.467Z,1012.3
2018-11-20T03:39:34.479Z,1012.2
2018-11-20T03:40:36.489Z,1012.2
2018-11-20T03:41:38.504Z,1012.3
2018-11-20T03:42:40.544Z,1012.2
2018-11-20T03:43:42.930Z,1012.2
2018-11-20T03:44:45.329Z,1012.1
2018-11-20T03:45:47.342Z,1012.1
2018-11-20T03:46:49.363Z,1012.2
2018-11-20T03:47:51.712Z,1012.2
2018-11-20T03:48:54.135Z,1012.1
2018-11-20T03:49:56.143Z,1012.1
2018-11-20T03:50:58.160Z,1012.1
2018-11-20T03:52:00.173Z,1012
2018-11-20T03:53:02.180Z,1012.1
2018-11-20T03:54:04.206Z,1012.1
2018-11-20T03:55:06.214Z,1011.9
2018-11-20T03:56:08.230Z,1012
2018-11-20T03:57:10.621Z,1012
2018-11-20T03:58:12.632Z,1011.8
2018-11-20T03:59:15.040Z,1011.9
2018-11-20T04:00:17.336Z,1011.8
2018-11-20T04:01:19.346Z,1012
2018-11-20T04:02:21.791Z,1011.9
2018-11-20T04:03:23.792Z,1012
2018-11-20T04:04:25.804Z,1011.9
2018-11-20T04:05:27.814Z,1011.9
2018-11-20T04:06:30.128Z,1011.8
2018-11-20T04:07:32.133Z,1011.8
2018-11-20T04:08:34.151Z,1011.9
2018-11-20T04:09:36.169Z,1011.8
2018-11-20T04:10:38.176Z,1011.7
2018-11-20T04:11:40.196Z,1011.8
2018-11-20T04:12:42.204Z,1011.8
2018-11-20T04:13:44.499Z,1011.8
2018-11-20T04:14:46.511Z,1011.8
2018-11-20T04:15:48.531Z,1011.8
2018-11-20T04:16:50.538Z,1011.7
2018-11-20T04:17:52.591Z,1011.7
2018-11-20T04:18:54.974Z,1011.8
2018-11-20T04:19:56.970Z,1011.8
2018-11-20T04:20:59.267Z,1011.7
2018-11-20T04:22:01.574Z,1011.8
2018-11-20T04:23:03.965Z,1011.8
2018-11-20T04:24:05.983Z,1011.7
2018-11-20T04:25:07.999Z,1011.7
2018-11-20T04:26:10.005Z,1011.7
2018-11-20T04:27:12.030Z,1011.7
2018-11-20T04:28:14.321Z,1011.6
2018-11-20T04:29:16.721Z,1011.7
2018-11-20T04:30:19.016Z,1011.6
2018-11-20T04:31:21.032Z,1011.6
2018-11-20T04:32:23.039Z,1011.6
2018-11-20T04:33:25.723Z,1011.6
2018-11-20T04:34:27.744Z,1011.6
2018-11-20T04:35:29.755Z,1011.5
2018-11-20T04:36:32.143Z,1011.5
2018-11-20T04:37:34.537Z,1011.6
2018-11-20T04:38:37.118Z,1011.6
2018-11-20T04:39:39.136Z,1011.6
2018-11-20T04:40:41.194Z,1011.6
2018-11-20T04:41:43.513Z,1011.5
2018-11-20T04:42:45.527Z,1011.5
2018-11-20T04:43:47.527Z,1011.4
2018-11-20T04:44:49.551Z,1011.5
2018-11-20T04:45:51.849Z,1011.4
2018-11-20T04:46:54.145Z,1011.4
2018-11-20T04:47:56.155Z,1011.6
2018-11-20T04:48:58.174Z,1011.5
2018-11-20T04:50:00.971Z,1011.5
2018-11-20T04:51:03.352Z,1011.5
2018-11-20T04:52:05.364Z,1011.6
2018-11-20T04:53:07.664Z,1011.5
2018-11-20T04:54:09.678Z,1011.6
2018-11-20T04:55:11.693Z,1011.5
2018-11-20T04:56:13.701Z,1011.5
2018-11-20T04:57:15.717Z,1011.5
2018-11-20T04:58:17.729Z,1011.6
2018-11-20T04:59:19.733Z,1011.6
2018-11-20T05:00:21.763Z,1011.5
2018-11-20T05:01:24.055Z,1011.6
2018-11-20T05:02:26.064Z,1011.6
2018-11-20T05:03:28.077Z,1011.5
2018-11-20T05:04:30.092Z,1011.6
2018-11-20T05:05:32.101Z,1011.7
2018-11-20T05:06:34.169Z,1011.6
2018-11-20T05:07:36.130Z,1011.7
2018-11-20T05:08:38.129Z,1011.7
2018-11-20T05:09:40.148Z,1011.7
2018-11-20T05:10:42.163Z,1011.6
2018-11-20T05:11:44.178Z,1011.6
2018-11-20T05:12:46.185Z,1011.6
2018-11-20T05:13:48.209Z,1011.7
2018-11-20T05:14:50.907Z,1011.6
2018-11-20T05:15:52.911Z,1011.7
2018-11-20T05:16:54.933Z,1011.6
2018-11-20T05:17:56.936Z,1011.7
2018-11-20T05:18:58.947Z,1011.7
2018-11-20T05:20:00.962Z,1011.6
2018-11-20T05:21:03.260Z,1011.6
2018-11-20T05:22:05.557Z,1011.6
2018-11-20T05:23:07.573Z,1011.6
2018-11-20T05:24:09.579Z,1011.7
2018-11-20T05:25:11.591Z,1011.6
2018-11-20T05:26:13.616Z,1011.7
2018-11-20T05:27:15.628Z,1011.7
2018-11-20T05:28:17.635Z,1011.7
2018-11-20T05:29:19.652Z,1011.6
2018-11-20T05:30:21.659Z,1011.7
2018-11-20T05:31:23.669Z,1011.7
2018-11-20T05:32:25.684Z,1011.7
2018-11-20T05:33:27.681Z,1011.7
2018-11-20T05:34:29.699Z,1011.8
2018-11-20T05:35:31.707Z,1011.7
2018-11-20T05:36:33.728Z,1011.7
2018-11-20T05:37:35.735Z,1011.8
2018-11-20T05:38:37.750Z,1011.8
2018-11-20T05:39:39.762Z,1011.7
2018-11-20T05:40:41.768Z,1011.8
2018-11-20T05:41:43.791Z,1011.7
2018-11-20T05:42:45.794Z,1011.7
2018-11-20T05:43:48.480Z,1011.7
2018-11-20T05:44:50.487Z,1011.8
2018-11-20T05:45:53.076Z,1011.7
2018-11-20T05:46:55.178Z,1011.7
2018-11-20T05:47:57.100Z,1011.6
2018-11-20T05:48:59.117Z,1011.7
2018-11-20T05:50:01.400Z,1011.7
2018-11-20T05:51:03.805Z,1011.7
2018-11-20T05:52:05.813Z,1011.7
2018-11-20T05:53:07.832Z,1011.7
2018-11-20T05:54:09.842Z,1011.8
2018-11-20T05:55:11.850Z,1011.7
2018-11-20T05:56:13.871Z,1011.8
2018-11-20T05:57:15.876Z,1011.8
2018-11-20T05:58:18.176Z,1011.8
2018-11-20T05:59:20.986Z,1011.8
2018-11-20T06:00:22.998Z,1011.7
2018-11-20T06:01:25.004Z,1011.7
2018-11-20T06:02:27.019Z,1011.7
2018-11-20T06:03:29.028Z,1011.6
2018-11-20T06:04:31.035Z,1011.7
2018-11-20T06:05:33.050Z,1011.6
2018-11-20T06:06:35.052Z,1011.7
2018-11-20T06:07:37.072Z,1011.7
2018-11-20T06:08:39.081Z,1011.8
2018-11-20T06:09:41.097Z,1011.8
2018-11-20T06:10:43.388Z,1011.7
2018-11-20T06:11:45.789Z,1011.7
2018-11-20T06:12:48.185Z,1011.8
2018-11-20T06:13:50.095Z,1011.8
2018-11-20T06:14:52.119Z,1011.8
2018-11-20T06:15:54.120Z,1011.7
2018-11-20T06:16:56.137Z,1011.7
2018-11-20T06:17:58.139Z,1011.6
2018-11-20T06:19:00.286Z,1011.7
2018-11-20T06:20:02.163Z,1011.7
2018-11-20T06:21:04.179Z,1011.7
2018-11-20T06:22:06.198Z,1011.7
2018-11-20T06:23:08.200Z,1011.8
2018-11-20T06:24:10.223Z,1011.7
2018-11-20T06:25:12.232Z,1011.7
2018-11-20T06:26:14.537Z,1011.8
2018-11-20T06:27:17.214Z,1011.8
2018-11-20T06:28:19.234Z,1011.9
2018-11-20T06:29:21.276Z,1011.8
2018-11-20T06:30:23.649Z,1011.8
2018-11-20T06:31:25.658Z,1011.8
2018-11-20T06:32:27.964Z,1011.8
2018-11-20T06:33:29.976Z,1011.8
2018-11-20T06:34:32.078Z,1011.9
2018-11-20T06:35:35.012Z,1011.8
2018-11-20T06:36:37.605Z,1011.7
2018-11-20T06:37:39.621Z,1011.8
2018-11-20T06:38:41.922Z,1011.9
2018-11-20T06:39:43.922Z,1011.8
2018-11-20T06:40:45.939Z,1011.8
2018-11-20T06:41:47.953Z,1011.8
2018-11-20T06:42:49.970Z,1011.8
2018-11-20T06:43:51.979Z,1011.9
2018-11-20T06:44:53.996Z,1011.8
2018-11-20T06:45:56.010Z,1011.8
2018-11-20T06:46:58.057Z,1011.8
2018-11-20T06:48:00.041Z,1011.8
2018-11-20T06:49:02.045Z,1011.8
2018-11-20T06:50:04.060Z,1011.7
2018-11-20T06:51:06.069Z,1011.7
2018-11-20T06:52:08.474Z,1011.7
2018-11-20T06:53:10.701Z,1011.7
2018-11-20T06:54:12.500Z,1011.6
2018-11-20T06:55:14.517Z,1011.7
2018-11-20T06:56:16.524Z,1011.7
2018-11-20T06:57:18.580Z,1011.7
2018-11-20T06:58:20.980Z,1011.8
2018-11-20T06:59:22.985Z,1011.7
2018-11-20T07:00:25.289Z,1011.7
2018-11-20T07:01:27.343Z,1011.7
2018-11-20T07:02:29.752Z,1011.7
2018-11-20T07:03:31.770Z,1011.7
2018-11-20T07:04:33.785Z,1011.6
2018-11-20T07:05:35.788Z,1011.8
2018-11-20T07:06:37.802Z,1011.8
2018-11-20T07:07:40.027Z,1011.8
2018-11-20T07:08:42.445Z,1011.9
2018-11-20T07:09:44.443Z,1011.8
2018-11-20T07:10:46.835Z,1011.8
2018-11-20T07:11:49.141Z,1011.7
2018-11-20T07:12:51.140Z,1011.8
2018-11-20T07:13:53.157Z,1011.7
2018-11-20T07:14:55.170Z,1011.7
2018-11-20T07:15:57.558Z,1011.7
2018-11-20T07:16:59.198Z,1011.7
2018-11-20T07:18:01.219Z,1011.6
2018-11-20T07:19:03.234Z,1011.7
2018-11-20T07:20:05.524Z,1011.8
2018-11-20T07:21:08.141Z,1011.8
2018-11-20T07:22:10.427Z,1011.8
2018-11-20T07:23:12.448Z,1011.9
2018-11-20T07:24:14.795Z,1011.8
2018-11-20T07:25:16.763Z,1011.9
2018-11-20T07:26:18.772Z,1011.8
2018-11-20T07:27:21.171Z,1011.8
2018-11-20T07:28:23.190Z,1011.9
2018-11-20T07:29:25.251Z,1011.9
2018-11-20T07:30:27.632Z,1011.8
2018-11-20T07:31:29.641Z,1011.9
2018-11-20T07:32:32.009Z,1011.9
2018-11-20T07:33:34.021Z,1011.9
2018-11-20T07:34:36.059Z,1011.9
2018-11-20T07:35:38.045Z,1011.9
2018-11-20T07:36:40.163Z,1011.9
2018-11-20T07:37:43.044Z,1012
2018-11-20T07:38:45.048Z,1012
2018-11-20T07:39:47.061Z,1012
2018-11-20T07:40:49.079Z,1012
2018-11-20T07:41:51.087Z,1011.9
2018-11-20T07:42:53.103Z,1011.9
2018-11-20T07:43:55.255Z,1012
2018-11-20T07:44:57.130Z,1012
2018-11-20T07:45:59.153Z,1012
2018-11-20T07:47:01.160Z,1012
2018-11-20T07:48:03.172Z,1012
2018-11-20T07:49:05.179Z,1012
2018-11-20T07:50:07.199Z,1011.9
2018-11-20T07:51:09.204Z,1011.9
2018-11-20T07:52:11.607Z,1011.9
2018-11-20T07:53:13.626Z,1011.9
2018-11-20T07:54:15.629Z,1012
2018-11-20T07:55:17.977Z,1011.9
2018-11-20T07:56:20.602Z,1011.9
2018-11-20T07:57:23.106Z,1011.8
2018-11-20T07:58:25.115Z,1011.8
2018-11-20T07:59:27.134Z,1011.9
2018-11-20T08:00:29.141Z,1011.9
2018-11-20T08:01:31.146Z,1011.9
2018-11-20T08:02:33.171Z,1011.9
2018-11-20T08:03:35.459Z,1011.8
2018-11-20T08:04:37.477Z,1011.9
2018-11-20T08:05:39.494Z,1011.8
2018-11-20T08:06:41.511Z,1011.8
2018-11-20T08:07:43.531Z,1011.8
2018-11-20T08:08:45.549Z,1011.7
2018-11-20T08:09:47.555Z,1011.8
2018-11-20T08:10:49.568Z,1011.7
2018-11-20T08:11:51.592Z,1011.7
2018-11-20T08:12:53.606Z,1011.7
2018-11-20T08:13:56.002Z,1011.7
2018-11-20T08:14:58.020Z,1011.8
2018-11-20T08:16:00.193Z,1011.7
2018-11-20T08:17:03.084Z,1011.7
2018-11-20T08:18:05.105Z,1011.7
2018-11-20T08:19:07.109Z,1011.7
2018-11-20T08:20:09.126Z,1011.6
2018-11-20T08:21:11.139Z,1011.7
2018-11-20T08:22:13.161Z,1011.7
2018-11-20T08:23:15.735Z,1011.8
2018-11-20T08:24:17.742Z,1011.7
2018-11-20T08:25:19.831Z,1011.7
2018-11-20T08:26:22.510Z,1011.6
2018-11-20T08:27:24.252Z,1011.6
2018-11-20T08:28:26.556Z,1011.6
2018-11-20T08:29:28.581Z,1011.6
2018-11-20T08:30:30.591Z,1011.7
2018-11-20T08:31:32.597Z,1011.6
2018-11-20T08:32:34.619Z,1011.6
2018-11-20T08:33:36.997Z,1011.6
2018-11-20T08:34:38.916Z,1011.6
2018-11-20T08:35:40.938Z,1011.6
2018-11-20T08:36:42.942Z,1011.7
2018-11-20T08:37:44.954Z,1011.6
2018-11-20T08:38:46.973Z,1011.7
2018-11-20T08:39:48.989Z,1011.5
2018-11-20T08:40:51.003Z,1011.5
2018-11-20T08:41:53.025Z,1011.5
2018-11-20T08:42:55.325Z,1011.5
2018-11-20T08:43:57.912Z,1011.5
2018-11-20T08:44:59.942Z,1011.4
2018-11-20T08:46:01.958Z,1011.4
2018-11-20T08:47:03.964Z,1011.4
2018-11-20T08:48:06.292Z,1011.4
2018-11-20T08:49:08.272Z,1011.4
2018-11-20T08:50:10.575Z,1011.3
2018-11-20T08:51:12.593Z,1011.3
2018-11-20T08:52:14.622Z,1011.2
2018-11-20T08:53:16.615Z,1011.3
2018-11-20T08:54:18.631Z,1011.2
2018-11-20T08:55:20.650Z,1011.2
2018-11-20T08:56:22.656Z,1011.2
2018-11-20T08:57:24.679Z,1011.3
2018-11-20T08:58:27.259Z,1011.3
2018-11-20T08:59:29.937Z,1011.2
2018-11-20T09:00:32.350Z,1011.3
2018-11-20T09:01:34.642Z,1011.2
2018-11-20T09:02:37.003Z,1011.2
2018-11-20T09:03:39.513Z,1011.1
2018-11-20T09:04:41.529Z,1011.1
2018-11-20T09:05:43.534Z,1011.2
2018-11-20T09:06:45.935Z,1011.2
2018-11-20T09:07:47.952Z,1011.2
2018-11-20T09:08:49.954Z,1011.2
2018-11-20T09:09:52.400Z,1011.1
2018-11-20T09:10:54.764Z,1011.2
2018-11-20T09:11:56.771Z,1011.2
2018-11-20T09:12:58.784Z,1011.2
2018-11-20T09:14:00.805Z,1011.2
2018-11-20T09:15:02.817Z,1011
2018-11-20T09:16:05.127Z,1011.1
2018-11-20T09:17:07.137Z,1011.2
2018-11-20T09:18:09.146Z,1011.1
2018-11-20T09:19:11.544Z,1011.2
2018-11-20T09:20:13.626Z,1011.1
2018-11-20T09:21:15.795Z,1011.1
2018-11-20T09:22:17.591Z,1011
2018-11-20T09:23:19.992Z,1011.1
2018-11-20T09:24:22.002Z,1011
2018-11-20T09:25:24.316Z,1011
2018-11-20T09:26:26.719Z,1011
2018-11-20T09:27:29.121Z,1011
2018-11-20T09:28:31.131Z,1011
2018-11-20T09:29:33.147Z,1011
2018-11-20T09:30:35.158Z,1011
2018-11-20T09:31:37.169Z,1010.9
2018-11-20T09:32:39.195Z,1010.9
2018-11-20T09:33:41.202Z,1010.9
2018-11-20T09:34:43.684Z,1010.9
2018-11-20T09:35:45.741Z,1010.9
2018-11-20T09:36:48.475Z,1010.8
2018-11-20T09:37:50.482Z,1010.9
2018-11-20T09:38:52.505Z,1011
2018-11-20T09:39:54.807Z,1010.9
2018-11-20T09:40:56.827Z,1010.9
2018-11-20T09:41:59.116Z,1010.9
2018-11-20T09:43:01.432Z,1010.9
2018-11-20T09:44:03.447Z,1010.8
2018-11-20T09:45:05.463Z,1010.9
2018-11-20T09:46:07.474Z,1010.9
2018-11-20T09:47:09.504Z,1010.9
2018-11-20T09:48:12.033Z,1010.9
2018-11-20T09:49:14.338Z,1010.9
2018-11-20T09:50:16.352Z,1010.8
2018-11-20T09:51:18.355Z,1010.8
2018-11-20T09:52:20.760Z,1010.8
2018-11-20T09:53:23.067Z,1010.8
2018-11-20T09:54:25.074Z,1010.8
2018-11-20T09:55:27.096Z,1010.8
2018-11-20T09:56:29.120Z,1010.8
2018-11-20T09:57:31.516Z,1010.8
2018-11-20T09:58:33.837Z,1010.8
2018-11-20T09:59:35.878Z,1010.8
2018-11-20T10:00:38.199Z,1010.7
2018-11-20T10:01:40.205Z,1010.8
2018-11-20T10:02:42.519Z,1010.8
2018-11-20T10:03:44.972Z,1010.8
2018-11-20T10:04:46.946Z,1010.8
2018-11-20T10:05:49.348Z,1010.7
2018-11-20T10:06:51.410Z,1010.8
2018-11-20T10:07:53.666Z,1010.7
2018-11-20T10:08:55.719Z,1010.7
2018-11-20T10:09:58.117Z,1010.8
2018-11-20T10:11:00.127Z,1010.8
2018-11-20T10:12:02.728Z,1010.8
2018-11-20T10:13:04.735Z,1010.8
2018-11-20T10:14:06.894Z,1010.8
2018-11-20T10:15:08.775Z,1010.8
2018-11-20T10:16:10.770Z,1010.7
2018-11-20T10:17:13.064Z,1010.7
2018-11-20T10:18:15.084Z,1010.7
2018-11-20T10:19:17.483Z,1010.7
2018-11-20T10:20:19.491Z,1010.7
2018-11-20T10:21:21.518Z,1010.7
2018-11-20T10:22:24.376Z,1010.7
2018-11-20T10:23:26.424Z,1010.7
2018-11-20T10:24:28.824Z,1010.6
2018-11-20T10:25:31.273Z,1010.7
2018-11-20T10:26:34.144Z,1010.7
2018-11-20T10:27:36.163Z,1010.7
2018-11-20T10:28:38.454Z,1010.7
2018-11-20T10:29:40.463Z,1010.7
2018-11-20T10:30:42.488Z,1010.6
2018-11-20T10:31:44.484Z,1010.6
2018-11-20T10:32:46.506Z,1010.5
2018-11-20T10:33:48.518Z,1010.6
2018-11-20T10:34:51.021Z,1010.5
2018-11-20T10:35:52.858Z,1010.5
2018-11-20T10:36:54.877Z,1010.5
2018-11-20T10:37:57.179Z,1010.5
2018-11-20T10:38:59.193Z,1010.5
2018-11-20T10:40:01.216Z,1010.5
2018-11-20T10:41:03.229Z,1010.5
2018-11-20T10:42:05.242Z,1010.5
2018-11-20T10:43:07.252Z,1010.4
2018-11-20T10:44:09.270Z,1010.4
2018-11-20T10:45:11.282Z,1010.4
2018-11-20T10:46:13.427Z,1010.3
2018-11-20T10:47:15.322Z,1010.3
2018-11-20T10:48:17.325Z,1010.4
2018-11-20T10:49:19.360Z,1010.3
2018-11-20T10:50:21.414Z,1010.3
2018-11-20T10:51:23.424Z,1010.4
2018-11-20T10:52:25.546Z,1010.4
2018-11-20T10:53:27.872Z,1010.4
2018-11-20T10:54:30.451Z,1010.3
2018-11-20T10:55:32.460Z,1010.2
2018-11-20T10:56:34.470Z,1010.2
2018-11-20T10:57:36.497Z,1010.2
2018-11-20T10:58:38.513Z,1010.2
2018-11-20T10:59:41.312Z,1010.2
2018-11-20T11:00:43.664Z,1010.2
2018-11-20T11:01:45.671Z,1010.2
2018-11-20T11:02:47.680Z,1010.1
2018-11-20T11:03:49.719Z,1010.2
2018-11-20T11:04:51.801Z,1010.1
2018-11-20T11:05:53.799Z,1010.1
2018-11-20T11:06:56.144Z,1010.1
2018-11-20T11:07:59.597Z,1010.1
2018-11-20T11:09:02.275Z,1010.1
2018-11-20T11:10:04.294Z,1010
2018-11-20T11:11:06.308Z,1010
2018-11-20T11:12:08.340Z,1010
2018-11-20T11:13:11.179Z,1010
2018-11-20T11:14:13.184Z,1009.9
2018-11-20T11:15:15.225Z,1010
2018-11-20T11:16:17.262Z,1009.9
2018-11-20T11:17:19.282Z,1009.9
2018-11-20T11:18:21.348Z,1009.9
2018-11-20T11:19:23.312Z,1009.9
2018-11-20T11:20:25.504Z,1009.9
2018-11-20T11:21:27.745Z,1009.9
2018-11-20T11:22:30.184Z,1009.9
2018-11-20T11:23:32.548Z,1009.9
2018-11-20T11:24:34.555Z,1009.8
2018-11-20T11:25:36.566Z,1009.9
2018-11-20T11:26:38.585Z,1009.8
2018-11-20T11:27:40.879Z,1009.8
2018-11-20T11:28:42.897Z,1009.8
2018-11-20T11:29:44.917Z,1009.8
2018-11-20T11:30:47.205Z,1009.8
2018-11-20T11:31:49.216Z,1009.8
2018-11-20T11:32:51.220Z,1009.7
2018-11-20T11:33:53.240Z,1009.7
2018-11-20T11:34:55.246Z,1009.7
2018-11-20T11:35:57.254Z,1009.7
2018-11-20T11:36:59.282Z,1009.7
2018-11-20T11:38:01.700Z,1009.6
2018-11-20T11:39:03.785Z,1009.7
2018-11-20T11:40:06.135Z,1009.7
2018-11-20T11:41:08.304Z,1009.6
2018-11-20T11:42:10.322Z,1009.6
2018-11-20T11:43:12.346Z,1009.6
2018-11-20T11:44:14.359Z,1009.6
2018-11-20T11:45:16.366Z,1009.7
2018-11-20T11:46:18.383Z,1009.6
2018-11-20T11:47:20.388Z,1009.6
2018-11-20T11:48:22.400Z,1009.6
2018-11-20T11:49:24.697Z,1009.6
2018-11-20T11:50:27.019Z,1009.6
2018-11-20T11:51:29.614Z,1009.5
2018-11-20T11:52:31.633Z,1009.5
2018-11-20T11:53:33.653Z,1009.6
2018-11-20T11:54:35.947Z,1009.6
2018-11-20T11:55:37.970Z,1009.6
2018-11-20T11:56:40.272Z,1009.6
2018-11-20T11:57:42.277Z,1009.6
2018-11-20T11:58:44.296Z,1009.7
2018-11-20T11:59:46.591Z,1009.6
2018-11-20T12:00:48.638Z,1009.6
2018-11-20T12:03:54.625Z,1009.6
2018-11-20T12:04:57.020Z,1009.5
2018-11-20T12:05:59.040Z,1009.6
2018-11-20T12:07:01.048Z,1009.6
2018-11-20T12:08:03.350Z,1009.6
2018-11-20T12:09:05.371Z,1009.6
2018-11-20T12:10:07.783Z,1009.6
2018-11-20T12:11:09.782Z,1009.5
2018-11-20T12:12:11.807Z,1009.6
2018-11-20T12:13:14.099Z,1009.6
2018-11-20T12:14:16.118Z,1009.6
2018-11-20T12:15:18.128Z,1009.6
2018-11-20T12:16:20.432Z,1009.7
2018-11-20T12:17:22.836Z,1009.6
2018-11-20T12:18:24.844Z,1009.5
2018-11-20T12:19:26.871Z,1009.6
2018-11-20T12:20:29.267Z,1009.5
2018-11-20T12:21:31.850Z,1009.5
2018-11-20T12:22:33.856Z,1009.5
2018-11-20T12:23:35.872Z,1009.5
2018-11-20T12:24:38.164Z,1009.5
2018-11-20T12:25:40.461Z,1009.5
2018-11-20T12:26:42.475Z,1009.5
2018-11-20T12:27:44.478Z,1009.5
2018-11-20T12:28:46.499Z,1009.5
2018-11-20T12:29:55.465Z,1009.5
2018-11-20T12:30:56.209Z,1009.5
2018-11-20T12:31:58.225Z,1009.5
2018-11-20T12:33:00.628Z,1009.5
2018-11-20T12:34:02.634Z,1009.4
2018-11-20T12:35:04.654Z,1009.4
2018-11-20T12:36:06.666Z,1009.4
2018-11-20T12:37:08.970Z,1009.4
2018-11-20T12:38:10.986Z,1009.4
2018-11-20T12:39:13.001Z,1009.4
2018-11-20T12:40:16.793Z,1009.4
2018-11-20T12:41:17.027Z,1009.3
2018-11-20T12:42:19.046Z,1009.4
2018-11-20T12:43:21.336Z,1009.2
2018-11-20T12:44:23.357Z,1009.3
2018-11-20T12:45:25.366Z,1009.3
2018-11-20T12:46:27.382Z,1009.3
2018-11-20T12:47:29.390Z,1009.2
2018-11-20T12:48:31.409Z,1009.2
2018-11-20T12:49:33.417Z,1009.2
2018-11-20T12:50:35.432Z,1009.2
2018-11-20T12:51:37.738Z,1009.2
2018-11-20T12:52:41.228Z,1009.2
2018-11-20T12:53:42.050Z,1009.1
2018-11-20T12:54:44.063Z,1009.1
2018-11-20T12:55:46.084Z,1009.1
2018-11-20T12:56:48.093Z,1009.1
2018-11-20T12:57:50.112Z,1009
2018-11-20T12:58:53.987Z,1009.1
2018-11-20T12:59:54.129Z,1009.1